Time;durP1;ratioP1;P1;durP2;ratioP2;P2;SDS_P1;SDS_P2;PMS_P1;PMS_P2;Temp;Humidity;BMP_temperature;BMP_pressure;BME280_temperature;BME280_humidity;BME280_pressure;Samples;Min_cycle;Max_cycle;Signal;HPM_P1;HPM_P2
2022/12/03 00:00:46;;;;;;;30.45;16.63;;;3.30;99.90;;;;;;7379741;19;20035;-49
2022/12/03 00:03:12;;;;;;;32.90;17.85;;;3.30;99.90;;;;;;7381773;19;20022;-45
2022/12/03 00:05:38;;;;;;;33.45;18.88;;;3.30;99.90;;;;;;7381099;19;20388;-50
2022/12/03 00:08:04;;;;;;;30.83;17.38;;;3.30;99.90;;;;;;7377567;19;20026;-46
2022/12/03 00:10:30;;;;;;;34.97;19.65;;;3.30;99.90;;;;;;7376791;19;20026;-47
2022/12/03 00:12:56;;;;;;;33.47;18.23;;;3.30;99.90;;;;;;7376389;19;20531;-46
2022/12/03 00:15:23;;;;;;;30.92;17.00;;;3.30;99.90;;;;;;7377136;19;20407;-49
2022/12/03 00:17:49;;;;;;;30.83;17.70;;;3.30;99.90;;;;;;7377013;19;20033;-48
2022/12/03 00:20:23;;;;;;;32.83;17.40;;;3.30;99.90;;;;;;7375733;19;20450;-48
2022/12/03 00:22:52;;;;;;;29.60;17.27;;;3.30;99.90;;;;;;7368720;19;20064;-49
2022/12/03 00:25:18;;;;;;;32.78;19.75;;;3.30;99.90;;;;;;7369454;19;20026;-46
2022/12/03 00:27:44;;;;;;;30.27;16.95;;;3.30;99.90;;;;;;7372894;19;20018;-48
2022/12/03 00:30:12;;;;;;;28.88;16.42;;;3.30;99.90;;;;;;7378873;19;20589;-47
2022/12/03 00:32:41;;;;;;;28.80;17.38;;;3.30;99.90;;;;;;7369365;19;20022;-45
2022/12/03 00:35:08;;;;;;;29.92;17.77;;;3.30;99.90;;;;;;7374733;19;20018;-46
2022/12/03 00:37:35;;;;;;;32.45;18.25;;;3.30;99.90;;;;;;7376963;19;20524;-47
2022/12/03 00:40:03;;;;;;;31.48;17.92;;;3.30;99.90;;;;;;7377678;19;20023;-47
2022/12/03 00:42:29;;;;;;;31.15;16.63;;;3.30;99.90;;;;;;7372408;19;20816;-45
2022/12/03 00:44:55;;;;;;;33.05;18.42;;;3.30;99.90;;;;;;7375209;19;20042;-45
2022/12/03 00:47:21;;;;;;;33.22;17.77;;;3.30;99.90;;;;;;7373924;19;20401;-48
2022/12/03 00:49:47;;;;;;;32.33;18.20;;;3.40;99.90;;;;;;7371246;19;20041;-47
2022/12/03 00:52:14;;;;;;;30.58;17.23;;;3.40;99.90;;;;;;7371285;19;20644;-49
2022/12/03 00:54:41;;;;;;;31.27;17.63;;;3.40;99.90;;;;;;7371950;19;20006;-48
2022/12/03 00:57:07;;;;;;;29.17;18.00;;;3.40;99.90;;;;;;7374738;19;20022;-45
2022/12/03 00:59:33;;;;;;;32.45;17.40;;;3.30;99.90;;;;;;7372831;19;20014;-46
2022/12/03 01:01:59;;;;;;;32.47;17.70;;;3.30;99.90;;;;;;7370795;19;20018;-48
2022/12/03 01:04:27;;;;;;;29.83;16.35;;;3.40;99.90;;;;;;7367694;19;20018;-46
2022/12/03 01:06:54;;;;;;;31.08;18.83;;;3.30;99.90;;;;;;7367153;19;20626;-46
2022/12/03 01:09:20;;;;;;;29.30;16.33;;;3.30;99.90;;;;;;7366285;19;20018;-45
2022/12/03 01:11:46;;;;;;;31.20;17.95;;;3.30;99.90;;;;;;7364311;19;20021;-45
2022/12/03 01:14:17;;;;;;;29.98;16.88;;;3.40;99.90;;;;;;7366218;19;20018;-49
2022/12/03 01:16:45;;;;;;;29.90;17.25;;;3.30;99.90;;;;;;7367419;19;20494;-45
2022/12/03 01:19:15;;;;;;;34.75;19.25;;;3.30;99.90;;;;;;7375372;19;20021;-48
2022/12/03 01:21:48;;;;;;;34.03;18.75;;;3.30;99.90;;;;;;7371343;19;20048;-45
2022/12/03 01:24:15;;;;;;;28.75;16.50;;;3.40;99.90;;;;;;7377327;19;20029;-45
2022/12/03 01:26:41;;;;;;;30.30;19.30;;;3.40;99.90;;;;;;7371474;19;20014;-48
2022/12/03 01:29:07;;;;;;;32.97;19.98;;;3.40;99.90;;;;;;7376482;19;20383;-47
2022/12/03 01:34:18;;;;;;;31.00;18.45;;;3.40;99.90;;;;;;7376511;19;20464;-44
2022/12/03 01:36:44;;;;;;;28.85;16.60;;;3.40;99.90;;;;;;7374245;19;20018;-47
2022/12/03 01:39:11;;;;;;;28.80;18.08;;;3.50;99.90;;;;;;7374866;19;20513;-47
2022/12/03 01:41:37;;;;;;;24.70;14.32;;;3.50;99.90;;;;;;7372242;19;20019;-49
2022/12/03 01:44:15;;;;;;;30.55;17.70;;;3.50;99.90;;;;;;7370060;19;20018;-47
2022/12/03 01:46:41;;;;;;;27.35;17.65;;;3.50;99.90;;;;;;7374659;19;20019;-50
2022/12/03 01:49:42;;;;;;;28.58;18.20;;;3.50;99.90;;;;;;7372979;19;20014;-49
2022/12/03 01:52:16;;;;;;;24.38;15.98;;;3.50;99.90;;;;;;7377012;19;20018;-47
2022/12/03 01:54:54;;;;;;;25.48;16.63;;;3.60;99.90;;;;;;7374112;19;20025;-44
2022/12/03 01:57:23;;;;;;;24.55;15.90;;;3.50;99.90;;;;;;7374038;19;20018;-46
2022/12/03 01:59:51;;;;;;;27.23;17.20;;;3.60;99.90;;;;;;7369592;19;20014;-44
2022/12/03 02:02:29;;;;;;;28.40;16.55;;;3.60;99.90;;;;;;7374899;19;20344;-45
2022/12/03 02:04:56;;;;;;;27.05;16.15;;;3.60;99.90;;;;;;7367679;19;20030;-44
2022/12/03 02:07:28;;;;;;;25.77;15.60;;;3.50;99.90;;;;;;7372648;19;20022;-48
2022/12/03 02:09:57;;;;;;;23.98;15.02;;;3.50;99.90;;;;;;7372582;19;20486;-48
2022/12/03 02:12:48;;;;;;;23.35;15.65;;;3.60;99.90;;;;;;7371721;19;20020;-47
2022/12/03 02:15:14;;;;;;;22.10;14.55;;;3.50;99.90;;;;;;7374476;19;20015;-49
2022/12/03 02:17:41;;;;;;;26.42;15.90;;;3.60;99.90;;;;;;7373466;19;20036;-46
2022/12/03 02:20:10;;;;;;;25.77;16.10;;;3.60;99.90;;;;;;7374094;19;20811;-49
2022/12/03 02:22:49;;;;;;;28.75;16.98;;;3.60;99.90;;;;;;7376146;19;20014;-49
2022/12/03 02:25:30;;;;;;;26.17;16.33;;;3.60;99.90;;;;;;7372176;19;20369;-47
2022/12/03 02:27:58;;;;;;;23.30;15.68;;;3.60;99.90;;;;;;7373702;19;20022;-46
2022/12/03 02:30:26;;;;;;;26.13;16.25;;;3.60;99.90;;;;;;7376075;19;20355;-48
2022/12/03 02:32:54;;;;;;;26.92;18.38;;;3.60;99.90;;;;;;7372412;19;20018;-46
2022/12/03 02:35:23;;;;;;;24.83;16.75;;;3.60;99.90;;;;;;7377035;19;20019;-46
2022/12/03 02:37:57;;;;;;;25.05;15.23;;;3.60;99.90;;;;;;7377075;19;20015;-48
2022/12/03 02:40:27;;;;;;;24.75;14.57;;;3.60;99.90;;;;;;7378276;19;20019;-47
2022/12/03 02:42:56;;;;;;;25.40;16.73;;;3.60;99.90;;;;;;7372236;19;20024;-46
2022/12/03 02:45:30;;;;;;;26.08;16.92;;;3.60;99.90;;;;;;7370894;19;20027;-46
2022/12/03 02:48:01;;;;;;;28.75;17.35;;;3.50;99.90;;;;;;7378215;19;20025;-49
2022/12/03 02:50:31;;;;;;;24.10;15.03;;;3.50;99.90;;;;;;7373702;19;20381;-47
2022/12/03 02:53:00;;;;;;;24.92;15.68;;;3.60;99.90;;;;;;7373515;19;20277;-48
2022/12/03 02:55:29;;;;;;;26.80;16.00;;;3.50;99.90;;;;;;7372000;19;20021;-48
2022/12/03 02:57:56;;;;;;;28.80;18.25;;;3.50;99.90;;;;;;7374629;19;20030;-45
2022/12/03 03:00:23;;;;;;;29.30;18.42;;;3.50;99.90;;;;;;7372450;19;20018;-48
2022/12/03 03:02:49;;;;;;;24.83;15.35;;;3.40;99.90;;;;;;7378215;19;20054;-46
2022/12/03 03:05:20;;;;;;;25.77;16.10;;;3.40;99.90;;;;;;7376924;19;20042;-47
2022/12/03 03:07:47;;;;;;;27.77;17.13;;;3.40;99.90;;;;;;7377635;19;20022;-45
2022/12/03 03:10:15;;;;;;;25.05;14.43;;;3.30;99.90;;;;;;7376340;19;20014;-49
2022/12/03 03:12:42;;;;;;;27.95;15.93;;;3.40;99.90;;;;;;7374649;19;20596;-48
2022/12/03 03:15:10;;;;;;;25.67;15.63;;;3.30;99.90;;;;;;7371678;19;20022;-47
2022/12/03 03:17:37;;;;;;;26.33;16.20;;;3.30;99.90;;;;;;7377249;19;20014;-46
2022/12/03 03:20:05;;;;;;;27.63;17.42;;;3.20;99.90;;;;;;7375707;19;20041;-51
2022/12/03 03:22:33;;;;;;;28.88;16.50;;;3.20;99.90;;;;;;7374522;19;20015;-48
2022/12/03 03:24:59;;;;;;;28.08;16.90;;;3.20;99.90;;;;;;7373589;19;20082;-50
2022/12/03 03:27:27;;;;;;;26.52;17.45;;;3.20;99.90;;;;;;7372771;19;20018;-48
2022/12/03 03:29:55;;;;;;;26.88;15.80;;;3.20;99.90;;;;;;7380004;19;20510;-49
2022/12/03 03:32:21;;;;;;;27.17;16.75;;;3.20;99.90;;;;;;7380393;19;20021;-46
2022/12/03 03:34:47;;;;;;;29.02;17.48;;;3.10;99.90;;;;;;7380978;19;20109;-47
2022/12/03 03:37:13;;;;;;;23.48;15.23;;;3.20;99.90;;;;;;7385646;19;20043;-45
2022/12/03 03:39:39;;;;;;;26.30;16.98;;;3.10;99.90;;;;;;7386451;19;20082;-45
2022/12/03 03:42:06;;;;;;;26.20;17.65;;;3.10;99.90;;;;;;7384838;19;20021;-45
2022/12/03 03:44:32;;;;;;;29.33;17.17;;;3.10;99.90;;;;;;7387736;19;20481;-46
2022/12/03 03:46:59;;;;;;;28.58;18.60;;;3.10;99.90;;;;;;7381256;19;20022;-45
2022/12/03 03:49:25;;;;;;;24.85;16.60;;;3.10;99.90;;;;;;7381917;19;20017;-45
2022/12/03 03:51:52;;;;;;;28.65;16.25;;;3.10;99.90;;;;;;7383293;19;20032;-44
2022/12/03 03:54:18;;;;;;;26.38;16.20;;;3.10;99.90;;;;;;7383143;19;20022;-47
2022/12/03 03:56:47;;;;;;;25.98;17.00;;;3.10;99.90;;;;;;7379834;19;20029;-45
2022/12/03 03:59:13;;;;;;;27.15;17.50;;;3.10;99.90;;;;;;7384883;19;20014;-44
2022/12/03 04:01:40;;;;;;;24.85;16.23;;;3.10;99.90;;;;;;7382172;19;20018;-45
2022/12/03 04:04:20;;;;;;;27.67;17.13;;;3.10;99.90;;;;;;7382629;19;20041;-47
2022/12/03 04:06:47;;;;;;;33.08;18.27;;;3.20;99.90;;;;;;7384005;19;20534;-44
2022/12/03 04:09:13;;;;;;;24.08;15.90;;;3.20;99.90;;;;;;7383979;19;20015;-45
2022/12/03 04:14:24;;;;;;;27.00;17.15;;;3.20;99.90;;;;;;7384228;19;20030;-44
2022/12/03 04:16:50;;;;;;;25.40;16.73;;;3.20;99.90;;;;;;7380361;19;20018;-46
2022/12/03 04:19:16;;;;;;;26.58;16.88;;;3.20;99.90;;;;;;7382578;19;20014;-46
2022/12/03 04:24:27;;;;;;;27.35;16.95;;;3.10;99.90;;;;;;7384964;19;20026;-44
2022/12/03 04:29:42;;;;;;;26.52;16.83;;;3.20;99.90;;;;;;7378939;19;20018;-48
2022/12/03 04:37:37;;;;;;;28.15;16.25;;;3.10;99.90;;;;;;7380111;19;20026;-47
2022/12/03 04:40:59;;;;;;;26.27;16.00;;;3.10;99.90;;;;;;7381896;19;20029;-49
2022/12/03 04:42:51;;;;;;;27.63;18.15;;;3.20;99.90;;;;;;7381351;19;20029;-49
2022/12/03 04:45:17;;;;;;;29.60;18.42;;;3.10;99.90;;;;;;7379398;19;20010;-49
2022/12/03 04:47:43;;;;;;;29.63;17.02;;;3.10;99.90;;;;;;7379216;19;20019;-49
2022/12/03 04:50:10;;;;;;;27.20;16.95;;;3.10;99.90;;;;;;7379020;19;20022;-48
2022/12/03 04:52:36;;;;;;;27.42;16.98;;;3.10;99.90;;;;;;7377299;19;20016;-48
2022/12/03 04:55:03;;;;;;;29.40;18.83;;;3.10;99.90;;;;;;7381341;19;20022;-46
2022/12/03 04:57:30;;;;;;;28.65;17.92;;;3.10;99.90;;;;;;7378843;19;20093;-44
2022/12/03 04:59:56;;;;;;;27.65;16.55;;;3.10;99.90;;;;;;7379063;19;20413;-44
2022/12/03 05:02:23;;;;;;;25.52;16.35;;;3.10;99.90;;;;;;7378766;19;20023;-48
2022/12/03 05:04:49;;;;;;;27.58;17.75;;;3.10;99.90;;;;;;7380562;19;20467;-46
2022/12/03 05:07:15;;;;;;;25.90;16.17;;;3.10;99.90;;;;;;7375433;19;20391;-45
2022/12/03 05:09:42;;;;;;;28.30;17.15;;;3.10;99.90;;;;;;7379653;19;20475;-46
2022/12/03 05:12:08;;;;;;;26.08;17.02;;;3.10;99.90;;;;;;7378119;19;20033;-46
2022/12/03 05:14:34;;;;;;;27.52;16.50;;;3.10;99.90;;;;;;7377692;19;20353;-45
2022/12/03 05:17:00;;;;;;;27.35;16.90;;;3.10;99.90;;;;;;7375859;19;20059;-46
2022/12/03 05:20:40;;;;;;;28.70;18.20;;;3.10;99.90;;;;;;7378667;19;20038;-45
2022/12/03 05:22:15;;;;;;;30.02;18.08;;;3.10;99.90;;;;;;7382547;19;20403;-44
2022/12/03 05:24:42;;;;;;;27.98;17.77;;;3.00;99.90;;;;;;7376728;19;20047;-43
2022/12/03 05:27:08;;;;;;;27.13;17.88;;;3.00;99.90;;;;;;7377084;19;20029;-47
2022/12/03 05:29:34;;;;;;;22.42;13.23;;;3.00;99.90;;;;;;7375580;19;20035;-47
2022/12/03 05:32:00;;;;;;;23.95;14.65;;;3.10;99.90;;;;;;7376299;19;20070;-47
2022/12/03 05:34:26;;;;;;;24.55;15.98;;;3.10;99.90;;;;;;7375042;19;20023;-48
2022/12/03 05:36:53;;;;;;;29.17;16.90;;;3.00;99.90;;;;;;7369089;19;20072;-46
2022/12/03 05:39:19;;;;;;;26.33;16.27;;;3.00;99.90;;;;;;7373813;19;20346;-48
2022/12/03 05:44:30;;;;;;;24.98;14.38;;;3.00;99.90;;;;;;7373928;19;20023;-47
2022/12/03 05:46:57;;;;;;;21.10;12.95;;;3.00;99.90;;;;;;7375553;19;20019;-49
2022/12/03 05:49:23;;;;;;;27.38;16.98;;;3.00;99.90;;;;;;7373751;19;20041;-45
2022/12/03 05:51:49;;;;;;;24.30;15.93;;;3.00;99.90;;;;;;7371707;19;20019;-46
2022/12/03 05:54:15;;;;;;;26.27;16.67;;;3.00;99.90;;;;;;7371552;19;20037;-49
2022/12/03 05:56:42;;;;;;;24.58;15.75;;;3.00;99.90;;;;;;7372208;19;20022;-45
2022/12/03 05:59:09;;;;;;;27.75;17.25;;;2.90;99.90;;;;;;7370270;19;20018;-46
2022/12/03 06:01:35;;;;;;;27.23;17.00;;;2.90;99.90;;;;;;7371140;19;20018;-50
2022/12/03 06:04:01;;;;;;;27.67;16.25;;;2.90;99.90;;;;;;7372822;19;20095;-45
2022/12/03 06:06:27;;;;;;;26.55;16.80;;;2.90;99.90;;;;;;7374007;19;20085;-50
2022/12/03 06:08:54;;;;;;;26.10;15.90;;;2.90;99.90;;;;;;7374163;19;20034;-46
2022/12/03 06:11:20;;;;;;;25.88;17.45;;;2.90;99.90;;;;;;7377642;19;20062;-45
2022/12/03 06:13:46;;;;;;;27.15;16.42;;;3.00;99.90;;;;;;7369167;19;20018;-44
2022/12/03 06:16:12;;;;;;;28.27;17.48;;;3.00;99.90;;;;;;7372623;19;20022;-49
2022/12/03 06:18:38;;;;;;;24.70;14.80;;;2.90;99.90;;;;;;7374842;19;20087;-47
2022/12/03 06:21:04;;;;;;;25.48;16.95;;;2.90;99.90;;;;;;7374332;19;20604;-47
2022/12/03 06:23:31;;;;;;;29.35;17.13;;;2.90;99.90;;;;;;7374867;19;20045;-46
2022/12/03 06:25:57;;;;;;;26.42;16.52;;;2.90;99.90;;;;;;7372582;19;20031;-46
2022/12/03 06:28:23;;;;;;;24.35;15.60;;;2.90;99.90;;;;;;7366360;19;20017;-49
2022/12/03 06:30:49;;;;;;;24.60;16.85;;;2.90;99.90;;;;;;7366884;19;20029;-50
2022/12/03 06:33:15;;;;;;;27.05;15.63;;;2.90;99.90;;;;;;7369573;19;20015;-45
2022/12/03 06:35:41;;;;;;;28.75;17.67;;;2.90;99.90;;;;;;7367701;19;20029;-49
2022/12/03 06:38:08;;;;;;;22.40;13.50;;;2.90;99.90;;;;;;7365903;19;20123;-50
2022/12/03 06:40:34;;;;;;;25.52;14.63;;;3.00;99.90;;;;;;7368387;19;20569;-47
2022/12/03 06:43:00;;;;;;;30.15;19.58;;;3.00;99.90;;;;;;7371217;19;20039;-49
2022/12/03 06:45:26;;;;;;;28.13;17.42;;;2.90;99.90;;;;;;7371664;19;20025;-48
2022/12/03 06:47:52;;;;;;;36.03;21.83;;;2.90;99.90;;;;;;7375810;19;20014;-46
2022/12/03 06:50:19;;;;;;;26.80;15.52;;;3.00;99.90;;;;;;7372601;19;20931;-47
2022/12/03 06:52:45;;;;;;;27.67;16.92;;;2.90;99.90;;;;;;7373914;19;20027;-48
2022/12/03 06:55:11;;;;;;;33.10;21.02;;;2.90;99.90;;;;;;7374335;19;20487;-45
2022/12/03 06:57:37;;;;;;;24.77;15.13;;;2.90;99.90;;;;;;7373981;19;20018;-48
2022/12/03 07:00:07;;;;;;;30.58;18.38;;;3.00;99.90;;;;;;7371467;19;20564;-47
2022/12/03 07:02:33;;;;;;;26.08;15.68;;;2.90;99.90;;;;;;7370964;19;20018;-45
2022/12/03 07:05:00;;;;;;;36.90;22.35;;;2.90;99.90;;;;;;7376531;19;20541;-46
2022/12/03 07:07:26;;;;;;;30.92;20.25;;;2.90;99.90;;;;;;7380658;19;20023;-45
2022/12/03 07:09:52;;;;;;;27.20;17.17;;;2.90;99.90;;;;;;7378812;19;20033;-46
2022/12/03 07:12:18;;;;;;;30.25;18.30;;;2.90;99.90;;;;;;7379844;19;20015;-46
2022/12/03 07:14:45;;;;;;;32.53;19.55;;;2.90;99.90;;;;;;7378958;19;20433;-49
2022/12/03 07:17:11;;;;;;;35.17;21.90;;;2.80;99.90;;;;;;7374590;19;20026;-45
2022/12/03 07:19:38;;;;;;;28.15;17.23;;;2.90;99.90;;;;;;7381482;19;20022;-49
2022/12/03 07:22:05;;;;;;;31.33;18.60;;;2.90;99.90;;;;;;7379920;19;20483;-45
2022/12/03 07:24:31;;;;;;;128.02;86.57;;;2.80;99.90;;;;;;7378437;19;20025;-44
2022/12/03 07:26:58;;;;;;;26.45;16.67;;;3.10;99.90;;;;;;7377289;19;20026;-47
2022/12/03 07:29:24;;;;;;;29.50;18.45;;;3.30;99.90;;;;;;7375516;19;20818;-47
2022/12/03 07:31:50;;;;;;;27.85;16.67;;;3.00;99.90;;;;;;7379275;19;20015;-48
2022/12/03 07:34:16;;;;;;;33.75;19.05;;;3.00;99.90;;;;;;7378344;19;20025;-47
2022/12/03 07:36:42;;;;;;;29.95;17.98;;;2.80;99.90;;;;;;7372721;19;20014;-49
2022/12/03 07:39:09;;;;;;;31.40;18.80;;;2.80;99.90;;;;;;7375011;19;20022;-48
2022/12/03 07:41:35;;;;;;;30.85;17.20;;;2.80;99.90;;;;;;7378631;19;20457;-46
2022/12/03 07:44:01;;;;;;;34.38;21.20;;;2.80;99.90;;;;;;7380996;19;20093;-49
2022/12/03 07:46:27;;;;;;;30.08;18.42;;;2.70;99.90;;;;;;7373443;19;20438;-48
2022/12/03 07:48:54;;;;;;;40.83;23.45;;;2.60;99.90;;;;;;7373677;19;20475;-46
2022/12/03 07:51:20;;;;;;;36.22;21.85;;;2.70;99.90;;;;;;7376263;19;20018;-47
2022/12/03 07:53:46;;;;;;;37.67;23.10;;;2.70;99.90;;;;;;7374814;19;20014;-49
2022/12/03 07:56:12;;;;;;;34.83;21.92;;;2.70;99.90;;;;;;7376818;19;20074;-48
2022/12/03 07:58:38;;;;;;;36.13;22.17;;;2.60;99.90;;;;;;7376740;19;20050;-46
2022/12/03 08:01:05;;;;;;;34.03;21.15;;;2.70;99.90;;;;;;7373696;19;20018;-46
2022/12/03 08:03:31;;;;;;;42.60;23.45;;;2.60;99.90;;;;;;7375179;19;20494;-49
2022/12/03 08:05:58;;;;;;;39.38;26.20;;;2.70;99.90;;;;;;7379364;19;20023;-49
2022/12/03 08:08:24;;;;;;;38.55;24.08;;;2.60;99.90;;;;;;7378313;19;20022;-48
2022/12/03 08:10:50;;;;;;;36.75;21.40;;;2.50;99.90;;;;;;7380514;19;20030;-46
2022/12/03 08:13:17;;;;;;;41.70;25.65;;;2.50;99.90;;;;;;7383181;19;20022;-51
2022/12/03 08:15:44;;;;;;;40.50;25.63;;;2.60;99.90;;;;;;7376415;19;20445;-46
2022/12/03 08:18:16;;;;;;;36.85;21.35;;;2.50;99.90;;;;;;7373661;19;20025;-50
2022/12/03 08:20:45;;;;;;;41.55;25.90;;;2.50;99.90;;;;;;7379879;19;20053;-51
2022/12/03 08:23:17;;;;;;;39.08;21.33;;;2.50;99.90;;;;;;7378011;19;20367;-48
2022/12/03 08:25:45;;;;;;;46.47;26.48;;;2.50;99.90;;;;;;7378171;19;20085;-49
2022/12/03 08:28:25;;;;;;;41.45;26.33;;;2.40;99.90;;;;;;7376671;19;20014;-50
2022/12/03 08:31:22;;;;;;;45.92;26.63;;;2.40;99.90;;;;;;7375872;19;20021;-49
2022/12/03 08:33:54;;;;;;;40.35;24.95;;;2.50;99.90;;;;;;7376933;19;20018;-51
2022/12/03 08:36:31;;;;;;;35.70;22.40;;;2.40;99.90;;;;;;7374192;19;20754;-51
2022/12/03 08:39:01;;;;;;;38.45;22.65;;;2.40;99.90;;;;;;7376056;19;20046;-49
2022/12/03 08:44:27;;;;;;;41.65;26.40;;;2.40;99.90;;;;;;7378003;19;20619;-52
2022/12/03 08:47:19;;;;;;;35.40;21.23;;;2.40;99.90;;;;;;7371437;19;20307;-51
2022/12/03 08:49:54;;;;;;;39.90;22.67;;;2.40;99.90;;;;;;7374885;19;20760;-51
2022/12/03 08:52:28;;;;;;;42.50;23.15;;;2.40;99.90;;;;;;7372027;19;20019;-51
2022/12/03 08:54:56;;;;;;;45.30;24.73;;;2.40;99.90;;;;;;7373426;19;20022;-50
2022/12/03 08:57:28;;;;;;;43.10;23.80;;;2.30;99.90;;;;;;7374805;19;20432;-52
2022/12/03 09:00:33;;;;;;;41.15;23.42;;;2.30;99.90;;;;;;7373119;19;20401;-50
2022/12/03 09:03:00;;;;;;;46.10;24.77;;;2.40;99.90;;;;;;7367172;19;20580;-47
2022/12/03 09:05:31;;;;;;;40.78;23.15;;;2.30;99.90;;;;;;7373123;19;20026;-51
2022/12/03 09:07:58;;;;;;;40.33;21.77;;;2.40;99.90;;;;;;7371156;19;20019;-50
2022/12/03 09:10:25;;;;;;;36.45;20.20;;;2.30;99.90;;;;;;7372827;19;20014;-51
2022/12/03 09:12:51;;;;;;;47.63;25.67;;;2.30;99.90;;;;;;7373355;19;20022;-48
2022/12/03 09:15:17;;;;;;;36.65;21.88;;;2.30;99.90;;;;;;7370188;19;20041;-46
2022/12/03 09:17:44;;;;;;;45.45;25.40;;;2.30;99.90;;;;;;7372960;19;20022;-48
2022/12/03 09:20:10;;;;;;;41.00;23.88;;;2.30;99.90;;;;;;7374588;19;20033;-46
2022/12/03 09:22:37;;;;;;;36.58;21.58;;;2.40;99.90;;;;;;7373517;19;20019;-50
2022/12/03 09:25:03;;;;;;;36.00;21.25;;;2.30;99.90;;;;;;7370876;19;20514;-46
2022/12/03 09:27:29;;;;;;;38.83;21.15;;;2.40;99.90;;;;;;7366061;19;20506;-50
2022/12/03 09:29:56;;;;;;;35.45;20.25;;;2.40;99.90;;;;;;7366764;19;20478;-48
2022/12/03 09:32:22;;;;;;;39.50;23.10;;;2.40;99.90;;;;;;7366371;19;20022;-47
2022/12/03 09:34:48;;;;;;;39.45;24.70;;;2.40;99.90;;;;;;7361773;19;20030;-50
2022/12/03 09:37:15;;;;;;;36.47;22.80;;;2.40;99.90;;;;;;7361415;19;20384;-49
2022/12/03 09:39:41;;;;;;;35.70;21.25;;;2.40;99.90;;;;;;7363817;19;20350;-46
2022/12/03 09:42:08;;;;;;;37.67;22.35;;;2.50;99.90;;;;;;7366178;19;20521;-46
2022/12/03 09:44:36;;;;;;;38.72;25.20;;;2.50;99.90;;;;;;7364097;19;20054;-49
2022/12/03 09:47:04;;;;;;;34.70;22.02;;;2.40;99.90;;;;;;7367903;19;20014;-47
2022/12/03 09:49:32;;;;;;;38.97;23.10;;;2.40;99.90;;;;;;7364494;19;20022;-49
2022/12/03 09:52:01;;;;;;;38.88;23.52;;;2.40;99.90;;;;;;7365841;19;20043;-49
2022/12/03 09:54:31;;;;;;;34.30;23.58;;;2.50;99.90;;;;;;7366271;19;20022;-48
2022/12/03 09:57:01;;;;;;;36.45;21.92;;;2.40;99.90;;;;;;7367731;19;20352;-52
2022/12/03 09:59:33;;;;;;;34.60;20.92;;;2.60;99.90;;;;;;7372779;19;20019;-46
2022/12/03 10:02:00;;;;;;;38.95;23.83;;;2.50;99.90;;;;;;7373043;19;20018;-48
2022/12/03 10:04:28;;;;;;;34.03;22.05;;;2.50;99.90;;;;;;7374276;19;20011;-51
2022/12/03 10:06:57;;;;;;;35.30;21.55;;;2.50;99.90;;;;;;7374692;19;20018;-44
2022/12/03 10:09:27;;;;;;;31.10;19.33;;;2.40;99.90;;;;;;7372599;19;20725;-48
2022/12/03 10:11:56;;;;;;;36.13;21.40;;;2.40;99.90;;;;;;7361844;19;20018;-46
2022/12/03 10:14:22;;;;;;;33.38;18.15;;;2.40;99.90;;;;;;7364579;19;20022;-51
2022/12/03 10:16:50;;;;;;;32.60;19.33;;;2.40;99.90;;;;;;7374051;19;20052;-52
2022/12/03 10:19:24;;;;;;;21.40;12.73;;;2.40;99.90;;;;;;7366421;19;20019;-49
2022/12/03 10:21:51;;;;;;;37.17;22.75;;;2.40;99.90;;;;;;7364806;19;20018;-51
2022/12/03 10:24:24;;;;;;;34.17;21.83;;;2.40;99.90;;;;;;7363019;19;20014;-48
2022/12/03 10:26:53;;;;;;;30.30;17.88;;;2.50;99.90;;;;;;7361936;19;20487;-50
2022/12/03 10:29:31;;;;;;;36.45;21.10;;;2.50;99.90;;;;;;7374078;19;22255;-51
2022/12/03 10:32:00;;;;;;;41.97;22.25;;;2.60;99.90;;;;;;7375606;19;20015;-52
2022/12/03 10:34:41;;;;;;;36.20;21.00;;;2.70;99.90;;;;;;7373590;19;20443;-52
2022/12/03 10:37:20;;;;;;;39.92;24.52;;;2.70;99.90;;;;;;7372041;19;20490;-52
2022/12/03 10:40:09;;;;;;;41.13;24.75;;;2.70;99.90;;;;;;7371837;19;20848;-50
2022/12/03 10:42:38;;;;;;;36.30;21.27;;;2.60;99.90;;;;;;7376155;19;20354;-50
2022/12/03 10:45:14;;;;;;;41.45;25.08;;;2.60;99.90;;;;;;7374149;19;20058;-52
2022/12/03 10:47:42;;;;;;;40.30;24.90;;;2.50;99.90;;;;;;7376994;19;20022;-51
2022/12/03 10:50:16;;;;;;;42.10;23.67;;;2.50;99.90;;;;;;7373560;19;20014;-52
2022/12/03 10:52:43;;;;;;;35.72;23.50;;;2.60;99.90;;;;;;7375570;19;20450;-51
2022/12/03 10:55:12;;;;;;;37.70;23.92;;;2.60;99.90;;;;;;7373173;19;20744;-51
2022/12/03 10:57:39;;;;;;;41.70;24.30;;;2.60;99.90;;;;;;7373055;19;20182;-52
2022/12/03 11:00:06;;;;;;;39.67;24.50;;;2.60;99.90;;;;;;7371008;19;20036;-51
2022/12/03 11:02:32;;;;;;;39.42;23.67;;;2.60;99.90;;;;;;7365089;19;20078;-49
2022/12/03 11:04:59;;;;;;;34.05;19.88;;;2.60;99.90;;;;;;7362493;19;20032;-51
2022/12/03 11:07:26;;;;;;;34.60;22.23;;;2.60;99.90;;;;;;7366759;19;20018;-49
2022/12/03 11:09:57;;;;;;;36.45;24.25;;;2.60;99.90;;;;;;7367187;19;20022;-51
2022/12/03 11:12:27;;;;;;;39.40;25.15;;;2.70;99.90;;;;;;7365371;19;20101;-52
2022/12/03 11:14:53;;;;;;;39.50;22.90;;;2.60;99.90;;;;;;7366286;19;20041;-48
2022/12/03 11:17:55;;;;;;;38.80;23.73;;;2.70;99.90;;;;;;7361677;19;20075;-50
2022/12/03 11:20:23;;;;;;;36.97;23.70;;;2.80;99.90;;;;;;7360378;19;20058;-51
2022/12/03 11:22:51;;;;;;;34.72;19.25;;;2.70;99.90;;;;;;7364040;19;20457;-50
2022/12/03 11:25:23;;;;;;;35.45;22.52;;;2.70;99.90;;;;;;7362033;19;20029;-50
2022/12/03 11:28:08;;;;;;;;;;;2.70;99.90;;;;;;7364486;19;20019;-51
2022/12/03 11:30:50;;;;;;;33.47;21.52;;;2.70;99.90;;;;;;7367263;19;20365;-51
2022/12/03 11:33:30;;;;;;;34.80;19.92;;;2.80;99.90;;;;;;7366751;19;20048;-51
2022/12/03 11:36:02;;;;;;;37.00;23.48;;;2.70;99.90;;;;;;7360944;19;20474;-51
2022/12/03 11:38:51;;;;;;;35.42;22.33;;;2.70;99.90;;;;;;7365231;19;20038;-51
2022/12/03 11:41:27;;;;;;;41.15;26.30;;;2.50;99.90;;;;;;7364693;19;20011;-48
2022/12/03 11:43:57;;;;;;;41.20;24.38;;;2.50;99.90;;;;;;7364499;19;20386;-49
2022/12/03 11:46:35;;;;;;;33.80;19.42;;;2.70;99.90;;;;;;7366596;19;20014;-53
2022/12/03 11:49:02;;;;;;;39.83;23.75;;;2.60;99.90;;;;;;7363196;19;20562;-47
2022/12/03 11:51:29;;;;;;;40.92;24.60;;;2.60;99.90;;;;;;7374282;19;20327;-48
2022/12/03 11:53:58;;;;;;;43.28;25.70;;;2.60;99.90;;;;;;7370819;19;20019;-52
2022/12/03 11:56:27;;;;;;;36.92;23.70;;;2.60;99.90;;;;;;7373642;19;20027;-52
2022/12/03 11:58:59;;;;;;;41.50;25.05;;;2.50;99.90;;;;;;7369874;19;20396;-50
2022/12/03 12:01:37;;;;;;;37.88;23.48;;;2.50;99.90;;;;;;7371592;19;20865;-49
2022/12/03 12:04:04;;;;;;;39.30;24.23;;;2.60;99.90;;;;;;7369493;19;20010;-50
2022/12/03 12:06:42;;;;;;;41.03;23.80;;;2.70;99.90;;;;;;7373412;19;20050;-50
2022/12/03 12:09:08;;;;;;;41.47;25.35;;;2.70;99.90;;;;;;7372814;19;20051;-49
2022/12/03 12:11:40;;;;;;;44.75;25.42;;;2.70;99.90;;;;;;7366982;19;20455;-51
2022/12/03 12:14:10;;;;;;;42.00;24.00;;;2.80;99.90;;;;;;7366750;19;20627;-52
2022/12/03 12:16:51;;;;;;;49.30;31.10;;;2.90;99.90;;;;;;7366376;19;20587;-47
2022/12/03 12:19:38;;;;;;;47.30;29.35;;;3.20;99.90;;;;;;7367935;19;20118;-51
2022/12/03 12:22:23;;;;;;;43.25;26.98;;;3.30;99.90;;;;;;7370479;19;20029;-47
2022/12/03 12:25:23;;;;;;;40.47;25.85;;;3.40;99.90;;;;;;7366811;19;20022;-46
2022/12/03 12:27:52;;;;;;;41.15;26.50;;;3.50;99.90;;;;;;7364641;19;20042;-49
2022/12/03 12:30:21;;;;;;;35.92;22.38;;;3.70;99.90;;;;;;7362382;19;20815;-46
2022/12/03 12:32:55;;;;;;;35.15;22.85;;;3.80;99.90;;;;;;7369072;19;20026;-47
2022/12/03 12:35:26;;;;;;;38.08;23.15;;;4.00;99.90;;;;;;7363865;19;20050;-49
2022/12/03 12:37:55;;;;;;;39.75;24.70;;;4.00;99.90;;;;;;7365417;19;20495;-50
2022/12/03 12:40:25;;;;;;;36.85;20.42;;;4.20;99.90;;;;;;7370101;19;20026;-45
2022/12/03 12:42:57;;;;;;;34.58;21.17;;;4.10;99.90;;;;;;7365213;19;20022;-45
2022/12/03 12:45:29;;;;;;;38.13;23.30;;;4.00;99.90;;;;;;7362264;19;20026;-46
2022/12/03 12:48:30;;;;;;;35.83;22.60;;;3.90;99.90;;;;;;7366539;19;20339;-46
2022/12/03 12:51:09;;;;;;;39.08;24.15;;;3.90;99.90;;;;;;7364723;19;20577;-45
2022/12/03 12:53:37;;;;;;;32.67;19.85;;;3.70;99.90;;;;;;7364746;19;20536;-46
2022/12/03 12:56:30;;;;;;;37.58;23.00;;;3.60;99.90;;;;;;7366106;19;20039;-48
2022/12/03 12:59:11;;;;;;;33.05;20.52;;;3.30;99.90;;;;;;7365436;19;20030;-47
2022/12/03 13:01:38;;;;;;;29.55;17.38;;;3.20;99.90;;;;;;7364090;19;20033;-45
2022/12/03 13:04:11;;;;;;;34.30;20.85;;;2.90;99.90;;;;;;7368338;19;20514;-47
2022/12/03 13:06:38;;;;;;;31.38;19.10;;;2.90;99.90;;;;;;7368028;19;20021;-46
2022/12/03 13:09:13;;;;;;;39.45;23.83;;;2.80;99.90;;;;;;7367996;19;20461;-48
2022/12/03 13:11:44;;;;;;;35.70;22.35;;;2.70;99.90;;;;;;7366243;19;20719;-45